Time;durP1;ratioP1;P1;durP2;ratioP2;P2;SDS_P1;SDS_P2;PMS_P1;PMS_P2;Temp;Humidity;BMP_temperature;BMP_pressure;BME280_temperature;BME280_humidity;BME280_pressure;Samples;Min_cycle;Max_cycle;Signal;HPM_P1;HPM_P2
2021/01/30 00:01:53;;;;;;;4.10;0.80;;;;;;;7.07;93.87;94884.44;5058127;28;20465;-86
2021/01/30 00:04:20;;;;;;;2.97;0.70;;;;;;;7.00;94.36;94894.72;5057703;28;20401;-86
2021/01/30 00:06:51;;;;;;;1.50;0.80;;;;;;;6.98;94.99;94891.16;5058082;28;20537;-86
2021/01/30 00:09:17;;;;;;;3.07;0.80;;;;;;;6.89;94.98;94894.47;5058134;28;20405;-87
2021/01/30 00:11:48;;;;;;;4.13;0.97;;;;;;;6.99;93.75;94901.31;5062176;28;20431;-87
2021/01/30 00:14:15;;;;;;;4.13;0.67;;;;;;;7.04;92.94;94899.69;5080127;28;20418;-87
2021/01/30 00:16:43;;;;;;;1.17;0.93;;;;;;;7.03;92.81;94908.97;5079856;28;20405;-87
2021/01/30 00:19:09;;;;;;;2.77;0.60;;;;;;;6.91;93.79;94918.75;5079909;28;20537;-87
2021/01/30 00:21:35;;;;;;;4.37;1.20;;;;;;;6.92;93.81;94920.19;5064660;28;20459;-87
2021/01/30 00:24:02;;;;;;;3.50;0.77;;;;;;;6.94;92.45;94909.59;5062513;28;20425;-87
2021/01/30 00:26:28;;;;;;;1.87;1.17;;;;;;;6.90;93.15;94911.97;5057655;28;20979;-87
2021/01/30 00:28:55;;;;;;;4.27;0.70;;;;;;;6.88;93.63;94914.50;5058447;28;20465;-87
2021/01/30 00:31:21;;;;;;;1.30;0.70;;;;;;;7.01;91.99;94911.50;5057382;28;20461;-86
2021/01/30 00:33:48;;;;;;;0.87;0.73;;;;;;;6.97;91.75;94905.81;5057968;28;20446;-88
2021/01/30 00:36:14;;;;;;;1.43;0.53;;;;;;;6.93;91.55;94903.53;5057420;28;20432;-88
2021/01/30 00:38:41;;;;;;;0.80;0.50;;;;;;;6.85;91.44;94904.88;5057011;28;20452;-87
2021/01/30 00:41:07;;;;;;;2.17;0.70;;;;;;;6.79;92.22;94896.34;5058254;28;20447;-87
2021/01/30 00:43:34;;;;;;;2.60;0.83;;;;;;;6.80;92.17;94903.81;5059699;28;20578;-87
2021/01/30 00:46:00;;;;;;;1.63;0.53;;;;;;;6.69;91.84;94898.94;5058461;28;20503;-86
2021/01/30 00:48:26;;;;;;;1.47;0.80;;;;;;;6.68;92.46;94896.78;5059558;28;20450;-85
2021/01/30 00:50:53;;;;;;;3.37;1.53;;;;;;;6.68;93.12;94894.81;5071857;28;20507;-85
2021/01/30 00:53:20;;;;;;;1.07;0.63;;;;;;;6.68;92.72;94899.47;5068634;28;20458;-87
2021/01/30 00:55:46;;;;;;;1.53;0.80;;;;;;;6.61;92.39;94908.31;5057318;28;20443;-86
2021/01/30 00:58:12;;;;;;;1.07;0.57;;;;;;;6.66;92.49;94894.66;5057558;28;20532;-86
2021/01/30 01:00:39;;;;;;;6.40;1.20;;;;;;;6.60;92.39;94898.84;5057775;28;20453;-87
2021/01/30 01:03:05;;;;;;;3.70;0.77;;;;;;;6.61;91.92;94897.59;5057054;28;20436;-87
2021/01/30 01:05:32;;;;;;;0.97;0.70;;;;;;;6.62;92.21;94904.34;5057170;28;20950;-86
2021/01/30 01:07:59;;;;;;;2.10;0.57;;;;;;;6.59;92.24;94905.44;5057733;28;20817;-86
2021/01/30 01:10:25;;;;;;;4.10;0.90;;;;;;;6.57;92.45;94908.69;5064666;28;20999;-86
2021/01/30 01:12:52;;;;;;;1.00;0.60;;;;;;;6.63;92.31;94909.16;5064528;28;20481;-86
2021/01/30 01:15:20;;;;;;;0.90;0.70;;;;;;;6.61;92.50;94894.91;5063811;28;20826;-85
2021/01/30 01:17:47;;;;;;;1.47;0.60;;;;;;;6.58;92.03;94896.69;5057133;28;20427;-85
2021/01/30 01:20:18;;;;;;;1.70;0.67;;;;;;;6.57;92.37;94907.97;5056380;28;20456;-87
2021/01/30 01:22:44;;;;;;;2.30;0.70;;;;;;;6.42;92.89;94904.16;5056045;28;20482;-87
2021/01/30 01:25:12;;;;;;;3.37;0.90;;;;;;;6.43;93.53;94910.94;5057437;28;20434;-87
2021/01/30 01:27:39;;;;;;;1.47;0.60;;;;;;;6.39;93.34;94904.56;5056426;28;20457;-86
2021/01/30 01:30:08;;;;;;;2.50;0.60;;;;;;;6.39;93.73;94918.63;5056387;28;20438;-86
2021/01/30 01:32:34;;;;;;;1.17;0.70;;;;;;;6.38;94.39;94911.88;5056134;28;20469;-86
2021/01/30 01:35:01;;;;;;;1.43;0.60;;;;;;;6.41;94.70;94912.75;5056644;28;20500;-85
2021/01/30 01:37:28;;;;;;;1.23;0.70;;;;;;;6.48;94.45;94910.00;5055856;28;20943;-85
2021/01/30 01:39:54;;;;;;;1.47;0.43;;;;;;;6.45;94.47;94916.44;5056379;28;20543;-85
2021/01/30 01:42:24;;;;;;;1.20;0.77;;;;;;;6.51;93.87;94915.53;5056908;28;20567;-85
2021/01/30 01:44:51;;;;;;;1.20;0.50;;;;;;;6.56;94.29;94917.97;5056838;28;20442;-85
2021/01/30 01:47:23;;;;;;;4.37;1.10;;;;;;;6.63;93.93;94916.50;5056038;28;20508;-86
2021/01/30 01:49:52;;;;;;;2.47;0.90;;;;;;;6.59;94.22;94908.84;5055764;28;20585;-86
2021/01/30 01:52:25;;;;;;;2.07;0.80;;;;;;;6.60;93.89;94917.59;5056313;28;20437;-87
2021/01/30 01:54:56;;;;;;;1.40;0.80;;;;;;;6.72;93.74;94921.94;5056551;28;20512;-87
2021/01/30 01:57:25;;;;;;;1.57;0.67;;;;;;;6.74;93.52;94922.09;5056461;28;20795;-87
2021/01/30 01:59:54;;;;;;;6.03;0.93;;;;;;;6.65;93.89;94925.41;5055914;28;20461;-86
2021/01/30 02:02:21;;;;;;;4.43;0.83;;;;;;;6.61;94.86;94919.72;5055567;28;20873;-87
2021/01/30 02:04:55;;;;;;;1.20;0.60;;;;;;;6.61;94.66;94921.69;5056219;28;20421;-87
2021/01/30 02:07:22;;;;;;;1.67;0.80;;;;;;;6.72;94.75;94918.56;5055596;28;20442;-86
2021/01/30 02:09:48;;;;;;;1.20;0.70;;;;;;;6.61;94.89;94908.31;5055035;28;20467;-86
2021/01/30 02:12:17;;;;;;;5.67;0.80;;;;;;;6.59;95.39;94919.56;5055400;28;20441;-86
2021/01/30 02:14:46;;;;;;;1.07;0.60;;;;;;;6.61;94.68;94917.03;5055852;28;20431;-86
2021/01/30 02:17:30;;;;;;;1.90;0.50;;;;;;;6.57;95.21;94916.00;5055768;28;20448;-86
2021/01/30 02:20:34;;;;;;;1.07;0.67;;;;;;;6.58;95.72;94906.72;5055656;28;20481;-85
2021/01/30 02:23:52;;;;;;;0.90;0.60;;;;;;;6.59;95.03;94900.81;5055972;28;20460;-85
2021/01/30 02:26:55;;;;;;;1.20;0.60;;;;;;;6.52;95.43;94898.88;5056146;28;20442;-86
2021/01/30 02:30:00;;;;;;;2.10;0.40;;;;;;;6.54;95.30;94901.75;5055978;28;20392;-85
2021/01/30 02:32:44;;;;;;;1.47;0.40;;;;;;;6.54;96.18;94904.44;4995762;28;20468;-85
2021/01/30 02:35:22;;;;;;;0.67;0.50;;;;;;;6.62;96.37;94901.66;5056429;28;20430;-85
2021/01/30 02:37:55;;;;;;;0.97;0.40;;;;;;;6.63;95.90;94898.44;5055805;28;20423;-85
2021/01/30 02:40:25;;;;;;;1.13;0.50;;;;;;;6.66;95.96;94899.31;5055731;28;21000;-85
2021/01/30 02:42:59;;;;;;;0.60;0.47;;;;;;;6.64;96.08;94901.84;5054832;28;20921;-86
2021/01/30 02:45:28;;;;;;;0.70;0.40;;;;;;;6.55;96.57;94887.06;5055945;28;20423;-86
2021/01/30 02:47:59;;;;;;;0.80;0.50;;;;;;;6.50;96.67;94901.41;5056192;28;20436;-86
2021/01/30 02:50:30;;;;;;;2.70;0.83;;;;;;;6.41;97.66;94891.31;5056359;28;20880;-86
2021/01/30 02:53:00;;;;;;;0.57;0.33;;;;;;;6.41;97.60;94894.69;5055932;28;20474;-86
2021/01/30 02:55:28;;;;;;;1.57;0.40;;;;;;;6.39;97.53;94905.25;5055567;28;20417;-86
2021/01/30 02:57:55;;;;;;;2.37;0.40;;;;;;;6.36;97.51;94894.91;5055396;28;20561;-86
2021/01/30 03:00:25;;;;;;;0.50;0.40;;;;;;;6.35;97.60;94891.53;5055699;28;20465;-86
2021/01/30 03:02:51;;;;;;;1.00;0.50;;;;;;;6.30;97.96;94892.44;5055955;28;20511;-86
2021/01/30 03:05:19;;;;;;;1.27;0.40;;;;;;;6.35;97.89;94883.50;5056151;28;20431;-86
2021/01/30 03:08:12;;;;;;;0.80;0.50;;;;;;;6.39;97.68;94872.41;5056294;28;20604;-87
2021/01/30 03:10:43;;;;;;;1.03;0.50;;;;;;;6.36;97.23;94866.16;5076051;28;20407;-86
2021/01/30 03:13:14;;;;;;;0.60;0.40;;;;;;;6.34;97.17;94862.59;5077310;28;20492;-86
2021/01/30 03:15:45;;;;;;;0.53;0.30;;;;;;;6.37;97.26;94859.53;5077374;28;20458;-86
2021/01/30 03:18:17;;;;;;;0.60;0.40;;;;;;;6.28;97.48;94862.84;5077515;28;20409;-87
2021/01/30 03:20:46;;;;;;;0.87;0.50;;;;;;;6.23;97.02;94866.47;5079060;28;20427;-87
2021/01/30 03:23:16;;;;;;;0.60;0.50;;;;;;;6.32;97.24;94868.53;5059451;28;20448;-88
2021/01/30 03:25:45;;;;;;;1.47;0.53;;;;;;;6.21;97.63;94868.25;5059376;28;20413;-87
2021/01/30 03:28:13;;;;;;;0.80;0.50;;;;;;;6.22;97.60;94869.66;5060035;28;20529;-87
2021/01/30 03:30:39;;;;;;;1.73;0.70;;;;;;;6.24;97.90;94867.16;5060246;28;20603;-87
2021/01/30 03:33:08;;;;;;;3.43;0.50;;;;;;;6.32;97.49;94873.16;5059437;28;20429;-87
2021/01/30 03:35:35;;;;;;;1.23;0.50;;;;;;;6.31;97.10;94867.09;5060009;28;20426;-87
2021/01/30 03:38:02;;;;;;;1.23;0.50;;;;;;;6.34;96.67;94871.34;5059522;28;20462;-87
2021/01/30 03:40:30;;;;;;;1.97;0.50;;;;;;;6.37;96.91;94872.94;5060422;28;20486;-87
2021/01/30 03:42:56;;;;;;;0.73;0.53;;;;;;;6.44;96.61;94864.13;5060173;28;20458;-87
2021/01/30 03:45:27;;;;;;;0.80;0.40;;;;;;;6.40;96.82;94863.09;5061563;28;20439;-87
2021/01/30 03:47:54;;;;;;;5.70;1.37;;;;;;;6.46;96.33;94858.94;5062003;28;20417;-87
2021/01/30 03:50:21;;;;;;;1.03;0.50;;;;;;;6.42;97.14;94861.28;5064269;28;20421;-87
2021/01/30 03:52:48;;;;;;;1.13;0.50;;;;;;;6.39;96.90;94862.38;5080326;28;20486;-87
2021/01/30 03:55:15;;;;;;;1.50;0.50;;;;;;;6.43;97.34;94852.00;5067366;28;20939;-86
2021/01/30 03:57:43;;;;;;;1.33;0.60;;;;;;;6.33;97.77;94851.19;5060225;28;20428;-87
2021/01/30 04:00:13;;;;;;;1.53;0.90;;;;;;;6.40;98.12;94857.72;5059622;28;20572;-87
2021/01/30 04:02:40;;;;;;;1.53;0.50;;;;;;;6.45;97.24;94848.78;5058455;28;20469;-88
2021/01/30 04:05:08;;;;;;;2.73;0.60;;;;;;;6.43;97.14;94849.31;5059182;28;20405;-87
2021/01/30 04:07:34;;;;;;;1.40;0.40;;;;;;;6.37;97.24;94845.44;5059183;28;20927;-87
2021/01/30 04:10:00;;;;;;;0.70;0.50;;;;;;;6.41;98.08;94837.72;5058520;28;20453;-87
2021/01/30 04:12:27;;;;;;;1.30;0.60;;;;;;;6.37;97.64;94827.41;5058380;28;20523;-87
2021/01/30 04:14:54;;;;;;;0.80;0.50;;;;;;;6.37;97.52;94827.41;5059119;28;20494;-87
2021/01/30 04:17:20;;;;;;;1.73;0.60;;;;;;;6.28;97.77;94824.63;5057394;28;20537;-87
2021/01/30 04:19:47;;;;;;;0.93;0.50;;;;;;;6.31;97.97;94818.88;5057584;28;20476;-86
2021/01/30 04:22:13;;;;;;;0.77;0.67;;;;;;;6.27;98.05;94804.44;5057935;28;20453;-86
2021/01/30 04:24:44;;;;;;;2.13;0.70;;;;;;;6.30;97.96;94806.75;5058376;28;20480;-88
2021/01/30 04:27:11;;;;;;;1.33;0.70;;;;;;;6.24;97.51;94808.94;5058628;28;20465;-88
2021/01/30 04:29:37;;;;;;;0.80;0.60;;;;;;;6.31;97.27;94818.19;5058231;28;20446;-88
2021/01/30 04:32:05;;;;;;;1.17;0.83;;;;;;;6.26;97.45;94805.72;5057282;28;20476;-88
2021/01/30 04:34:31;;;;;;;2.67;0.60;;;;;;;6.15;98.60;94806.88;5058424;28;20461;-88
2021/01/30 04:36:58;;;;;;;4.47;0.70;;;;;;;6.16;98.67;94802.94;5057963;28;20421;-88
2021/01/30 04:39:24;;;;;;;3.03;0.70;;;;;;;6.15;97.37;94804.19;5058254;28;20635;-88
2021/01/30 04:41:58;;;;;;;1.53;0.60;;;;;;;6.24;97.32;94805.56;5057908;28;20462;-88
2021/01/30 04:44:33;;;;;;;0.90;0.67;;;;;;;6.24;97.38;94795.56;5058240;28;20760;-88
2021/01/30 04:47:18;;;;;;;2.00;0.60;;;;;;;6.21;97.42;94807.38;5058490;28;20422;-88
2021/01/30 04:49:51;;;;;;;2.97;1.00;;;;;;;6.13;97.91;94801.38;5057638;28;20779;-86
2021/01/30 04:52:34;;;;;;;0.70;0.47;;;;;;;6.14;98.26;94794.75;5057719;28;20466;-87
2021/01/30 04:55:12;;;;;;;9.47;0.97;;;;;;;6.19;98.14;94796.50;5057815;28;20470;-86
2021/01/30 04:57:53;;;;;;;1.13;0.50;;;;;;;6.11;98.54;94797.84;5057306;28;20434;-86
2021/01/30 05:00:32;;;;;;;2.33;1.00;;;;;;;6.19;98.76;94790.44;5057077;28;20441;-86
2021/01/30 05:03:14;;;;;;;1.43;0.50;;;;;;;6.29;98.25;94789.28;5057526;28;20564;-88
2021/01/30 05:05:46;;;;;;;2.17;0.63;;;;;;;6.25;97.68;94790.91;5062257;28;20434;-88
2021/01/30 05:08:19;;;;;;;1.47;0.50;;;;;;;6.31;97.95;94789.44;5063628;28;20922;-87
2021/01/30 05:10:50;;;;;;;2.20;0.80;;;;;;;6.25;98.07;94788.22;5058036;28;20983;-87
2021/01/30 05:13:21;;;;;;;5.13;0.70;;;;;;;6.31;97.97;94772.66;5057179;28;20452;-87
2021/01/30 05:15:52;;;;;;;5.10;0.83;;;;;;;6.31;97.74;94781.38;5057829;28;20427;-87
2021/01/30 05:18:27;;;;;;;1.43;0.60;;;;;;;6.31;98.08;94786.03;5056619;28;20401;-87
2021/01/30 05:20:57;;;;;;;2.23;0.90;;;;;;;6.38;97.40;94787.94;5056380;28;20444;-87
2021/01/30 05:23:25;;;;;;;1.90;0.70;;;;;;;6.34;96.77;94787.63;5056740;28;20437;-87
2021/01/30 05:25:58;;;;;;;1.70;0.63;;;;;;;6.37;96.99;94789.91;5056769;28;20450;-87
2021/01/30 05:28:30;;;;;;;0.77;0.77;;;;;;;6.29;96.74;94778.56;5056376;28;20718;-87
2021/01/30 05:31:11;;;;;;;1.87;0.90;;;;;;;6.30;96.96;94769.25;5057403;28;20417;-87
2021/01/30 05:33:52;;;;;;;1.53;0.60;;;;;;;6.33;96.49;94772.78;5056891;28;20450;-87
2021/01/30 05:36:23;;;;;;;2.23;1.03;;;;;;;6.28;96.04;94769.09;5056132;28;20536;-87
2021/01/30 05:38:57;;;;;;;3.40;1.20;;;;;;;6.28;96.15;94769.09;5056905;28;21000;-87
2021/01/30 05:41:45;;;;;;;4.27;1.20;;;;;;;6.28;96.97;94763.75;5056305;28;20513;-86
2021/01/30 05:44:15;;;;;;;2.47;1.30;;;;;;;6.15;96.92;94761.34;5056377;28;20517;-86
2021/01/30 05:46:41;;;;;;;4.20;0.80;;;;;;;6.19;96.89;94760.97;5056406;28;20507;-85
2021/01/30 05:49:14;;;;;;;2.57;0.80;;;;;;;6.16;96.67;94759.41;5056164;28;20500;-86
2021/01/30 05:51:46;;;;;;;3.90;0.90;;;;;;;6.09;96.84;94760.16;5056331;28;20472;-86
2021/01/30 05:54:12;;;;;;;4.17;2.07;;;;;;;6.04;96.46;94759.16;5057260;28;20401;-86
2021/01/30 05:56:41;;;;;;;6.70;1.40;;;;;;;6.07;96.71;94758.06;5056672;28;20537;-86
2021/01/30 05:59:11;;;;;;;8.43;1.33;;;;;;;6.04;96.65;94753.78;5056797;28;20482;-86
2021/01/30 06:01:37;;;;;;;2.97;1.43;;;;;;;6.13;96.40;94752.47;5073590;28;20413;-85
2021/01/30 06:04:06;;;;;;;6.20;1.70;;;;;;;6.11;96.26;94753.00;5072479;28;20442;-86
2021/01/30 06:06:37;;;;;;;1.53;1.03;;;;;;;6.16;95.16;94746.72;5060167;28;20488;-86
2021/01/30 06:09:06;;;;;;;6.20;1.10;;;;;;;6.08;95.13;94746.06;5078028;28;20415;-86
2021/01/30 06:11:45;;;;;;;11.10;1.53;;;;;;;6.08;94.85;94754.09;5077993;28;20454;-86
2021/01/30 06:14:29;;;;;;;8.33;1.77;;;;;;;6.10;94.42;94753.56;5077882;28;20424;-86
2021/01/30 06:16:59;;;;;;;5.07;2.00;;;;;;;6.05;94.75;94746.44;5061331;28;20422;-88
2021/01/30 06:19:27;;;;;;;4.67;1.97;;;;;;;5.98;94.84;94739.94;5056768;28;20941;-87
2021/01/30 06:22:11;;;;;;;5.50;1.00;;;;;;;5.98;95.27;94736.53;5056409;28;20929;-87
2021/01/30 06:24:44;;;;;;;10.93;1.47;;;;;;;6.02;95.28;94745.59;5056349;28;20529;-87
2021/01/30 06:27:18;;;;;;;7.70;1.40;;;;;;;6.03;94.71;94738.97;5055295;28;20513;-85
2021/01/30 06:29:49;;;;;;;4.47;1.70;;;;;;;6.04;93.92;94739.69;5055961;28;20418;-85
2021/01/30 06:32:25;;;;;;;6.73;1.70;;;;;;;5.93;94.98;94738.16;5056109;28;20588;-86
2021/01/30 06:34:55;;;;;;;10.63;1.63;;;;;;;6.01;94.61;94738.13;5057103;28;20381;-86
2021/01/30 06:37:38;;;;;;;8.13;2.00;;;;;;;6.03;94.23;94738.28;5057494;28;20401;-87
2021/01/30 06:40:16;;;;;;;5.20;1.50;;;;;;;6.05;94.39;94733.78;5057173;28;20462;-87
2021/01/30 06:42:44;;;;;;;8.27;1.60;;;;;;;6.04;93.59;94735.06;5056542;28;20421;-87
2021/01/30 06:45:24;;;;;;;12.00;2.80;;;;;;;6.05;93.91;94727.72;5056191;28;20443;-87
2021/01/30 06:47:51;;;;;;;6.93;1.67;;;;;;;6.00;94.15;94726.69;5056328;28;20421;-87
2021/01/30 06:50:26;;;;;;;5.37;1.33;;;;;;;6.01;93.77;94730.81;5056501;28;20581;-87
2021/01/30 06:52:53;;;;;;;9.43;2.07;;;;;;;6.10;93.98;94732.84;5055879;28;20443;-87
2021/01/30 06:55:24;;;;;;;14.50;2.33;;;;;;;6.10;94.03;94737.50;5059846;28;20529;-86
2021/01/30 06:58:01;;;;;;;11.70;1.83;;;;;;;6.06;94.20;94727.19;5060632;28;20450;-85
2021/01/30 07:00:30;;;;;;;8.67;2.10;;;;;;;6.11;93.64;94733.56;5059712;28;20823;-87
2021/01/30 07:03:09;;;;;;;12.90;2.30;;;;;;;6.11;93.71;94730.91;5060620;28;20462;-86
2021/01/30 07:05:47;;;;;;;10.27;2.20;;;;;;;6.05;93.80;94727.72;5060118;28;20404;-86
2021/01/30 07:08:36;;;;;;;9.20;1.83;;;;;;;6.11;93.82;94723.56;5060031;28;20917;-86
2021/01/30 07:11:15;;;;;;;7.37;2.60;;;;;;;6.05;93.64;94725.03;5062668;28;20431;-84
2021/01/30 07:13:54;;;;;;;4.33;1.90;;;;;;;6.08;93.70;94721.97;5072714;28;20422;-86
2021/01/30 07:16:32;;;;;;;12.40;2.23;;;;;;;6.09;93.78;94717.34;5067743;28;20457;-87
2021/01/30 07:19:08;;;;;;;8.40;2.17;;;;;;;6.13;94.39;94721.03;5062523;28;20454;-88
2021/01/30 07:21:39;;;;;;;21.97;2.40;;;;;;;6.21;93.27;94712.94;5061898;28;20463;-88
2021/01/30 07:24:22;;;;;;;10.53;1.90;;;;;;;6.22;93.10;94711.66;5061053;28;20430;-86
2021/01/30 07:26:54;;;;;;;8.23;2.50;;;;;;;6.19;93.41;94716.16;5060157;28;20423;-86
2021/01/30 07:29:33;;;;;;;19.50;2.80;;;;;;;6.23;93.69;94716.50;5060161;28;20401;-86
2021/01/30 07:32:07;;;;;;;6.17;1.97;;;;;;;6.26;93.49;94707.34;5060031;28;20860;-88
2021/01/30 07:34:39;;;;;;;8.23;2.23;;;;;;;6.26;93.79;94699.31;5060548;28;20466;-87
2021/01/30 07:37:15;;;;;;;9.43;2.00;;;;;;;6.41;93.06;94704.50;5060915;28;20804;-87
2021/01/30 07:39:49;;;;;;;8.27;2.73;;;;;;;6.35;93.25;94698.69;5062134;28;20441;-87
2021/01/30 07:42:20;;;;;;;10.60;2.13;;;;;;;6.38;93.22;94697.59;5060963;28;20485;-86
2021/01/30 07:45:02;;;;;;;10.03;2.43;;;;;;;6.41;93.06;94688.44;5074502;28;20445;-91
2021/01/30 07:47:36;;;;;;;11.27;2.30;;;;;;;6.42;93.11;94689.84;5071090;28;20458;-86
2021/01/30 07:50:08;;;;;;;10.60;2.90;;;;;;;6.48;92.62;94687.63;5060111;28;20781;-87
2021/01/30 07:52:44;;;;;;;10.43;2.97;;;;;;;6.57;92.92;94680.94;5062000;28;20544;-87
2021/01/30 07:55:11;;;;;;;11.60;2.00;;;;;;;6.58;92.80;94682.34;5077566;28;20442;-86
2021/01/30 07:58:02;;;;;;;8.40;2.37;;;;;;;6.57;92.70;94683.63;5073498;28;20438;-87
2021/01/30 08:00:37;;;;;;;8.80;2.80;;;;;;;6.64;92.56;94682.09;5065289;28;20473;-87
2021/01/30 08:03:43;;;;;;;13.90;2.13;;;;;;;6.67;92.46;94681.00;5058699;28;20431;-88
2021/01/30 08:06:22;;;;;;;8.20;1.90;;;;;;;6.65;92.35;94683.50;5057575;28;20915;-86
2021/01/30 08:08:57;;;;;;;9.67;2.50;;;;;;;6.72;91.57;94688.06;5057805;28;20484;-87
2021/01/30 08:11:30;;;;;;;6.37;2.43;;;;;;;6.80;90.92;94677.94;5058178;28;20916;-88
2021/01/30 08:14:19;;;;;;;7.47;2.20;;;;;;;6.81;91.32;94676.69;5057869;28;20397;-86
2021/01/30 08:16:55;;;;;;;3.90;1.53;;;;;;;6.86;91.06;94673.75;5058367;28;20431;-85
2021/01/30 08:19:34;;;;;;;8.03;2.40;;;;;;;6.94;90.27;94673.66;5058482;28;20804;-86
2021/01/30 08:22:04;;;;;;;12.23;1.97;;;;;;;7.02;90.12;94676.94;5058225;28;20482;-86
2021/01/30 08:24:36;;;;;;;7.53;2.50;;;;;;;6.97;90.68;94675.94;5062255;28;20443;-86
2021/01/30 08:27:09;;;;;;;10.97;3.00;;;;;;;7.01;90.93;94680.91;5067754;28;20401;-87
2021/01/30 08:29:39;;;;;;;10.23;3.90;;;;;;;7.10;90.13;94674.88;5065221;28;20426;-88
2021/01/30 08:32:36;;;;;;;16.40;2.23;;;;;;;7.13;90.03;94681.81;5059590;28;20906;-87
2021/01/30 08:35:36;;;;;;;8.00;2.30;;;;;;;7.03;90.29;94681.06;5057614;28;20447;-87
2021/01/30 08:38:06;;;;;;;14.00;2.60;;;;;;;7.07;90.11;94683.34;5058600;28;20417;-85
2021/01/30 08:40:52;;;;;;;15.80;4.27;;;;;;;7.08;90.76;94671.34;5058248;28;20487;-86
2021/01/30 08:43:33;;;;;;;6.70;2.10;;;;;;;7.15;90.70;94675.88;5058520;28;20978;-87
2021/01/30 08:46:21;;;;;;;9.37;2.57;;;;;;;7.28;89.93;94670.16;5058741;28;20838;-88
2021/01/30 08:49:02;;;;;;;12.23;3.73;;;;;;;7.38;89.11;94665.53;5059752;28;20407;-89
2021/01/30 08:51:28;;;;;;;11.43;2.20;;;;;;;7.45;89.18;94665.44;5058697;28;20446;-88
2021/01/30 08:53:56;;;;;;;13.00;2.70;;;;;;;7.37;88.82;94672.16;5060221;28;20478;-89
2021/01/30 08:56:46;;;;;;;7.57;2.00;;;;;;;7.33;89.84;94669.88;5060001;28;20468;-86
2021/01/30 08:59:41;;;;;;;7.97;2.23;;;;;;;7.22;90.01;94667.03;5057425;28;20504;-88
2021/01/30 09:02:09;;;;;;;14.37;2.43;;;;;;;7.25;90.04;94663.94;5058520;28;20437;-86
2021/01/30 09:04:45;;;;;;;17.67;3.30;;;;;;;7.29;90.44;94661.56;5059093;28;20435;-87
2021/01/30 09:07:48;;;;;;;9.23;2.57;;;;;;;7.22;90.18;94662.38;5058033;28;20968;-87
2021/01/30 09:10:34;;;;;;;14.00;3.13;;;;;;;7.24;90.08;94665.19;5058672;28;20589;-87
2021/01/30 09:13:03;;;;;;;13.53;2.93;;;;;;;7.28;90.49;94659.41;5058838;28;20991;-87
2021/01/30 09:15:56;;;;;;;10.73;3.23;;;;;;;7.39;89.99;94651.53;5057235;28;20438;-87
2021/01/30 09:18:36;;;;;;;12.30;3.20;;;;;;;7.42;89.55;94655.78;5056382;28;20427;-88
2021/01/30 09:21:08;;;;;;;7.63;3.03;;;;;;;7.42;90.19;94655.09;5066434;28;20493;-86
2021/01/30 09:23:44;;;;;;;11.13;3.10;;;;;;;7.39;90.54;94646.19;5078356;28;20453;-86
2021/01/30 09:26:20;;;;;;;14.27;3.03;;;;;;;7.46;90.27;94658.06;5078018;28;20431;-88
2021/01/30 09:28:56;;;;;;;9.23;3.40;;;;;;;7.53;89.65;94646.50;5076620;28;20465;-88
2021/01/30 09:31:25;;;;;;;16.60;3.37;;;;;;;7.60;89.29;94650.34;5066946;28;20409;-87
2021/01/30 09:34:02;;;;;;;11.30;3.27;;;;;;;7.65;89.44;94650.06;5075998;28;20437;-87
2021/01/30 09:36:34;;;;;;;10.40;2.40;;;;;;;7.74;88.86;94643.28;5077738;28;20409;-87
2021/01/30 09:39:01;;;;;;;11.47;3.10;;;;;;;7.72;88.50;94651.22;5077611;28;20423;-87
2021/01/30 09:41:29;;;;;;;10.40;2.60;;;;;;;7.78;88.38;94640.91;5063154;28;20446;-88
2021/01/30 09:44:06;;;;;;;8.80;2.67;;;;;;;7.82;88.11;94649.25;5059538;28;20446;-86
2021/01/30 09:46:37;;;;;;;8.63;2.70;;;;;;;7.80;88.65;94657.19;5057358;28;20476;-86
2021/01/30 09:49:08;;;;;;;12.77;2.50;;;;;;;7.87;87.75;94650.94;5056951;28;20429;-86
2021/01/30 09:51:41;;;;;;;7.80;3.17;;;;;;;7.87;88.04;94648.25;5058078;28;20435;-88
2021/01/30 09:54:12;;;;;;;9.57;3.23;;;;;;;7.98;87.69;94653.09;5057429;28;20417;-87
2021/01/30 09:56:39;;;;;;;17.47;4.63;;;;;;;7.99;87.35;94655.19;5057260;28;20429;-89
2021/01/30 09:59:07;;;;;;;10.10;3.03;;;;;;;8.01;87.34;94649.28;5058411;28;20470;-89
2021/01/30 10:01:37;;;;;;;9.70;2.57;;;;;;;8.07;87.33;94650.41;5058556;28;20438;-86
2021/01/30 10:04:22;;;;;;;13.73;3.23;;;;;;;8.08;87.08;94643.75;5058472;28;20416;-87
2021/01/30 10:06:50;;;;;;;9.43;2.53;;;;;;;8.10;86.41;94651.25;5069501;28;20467;-87
2021/01/30 10:09:20;;;;;;;12.23;3.60;;;;;;;8.09;87.36;94634.44;5069608;28;20438;-90
2021/01/30 10:11:50;;;;;;;7.67;2.63;;;;;;;8.09;87.53;94634.44;5057060;28;20498;-89
2021/01/30 10:14:19;;;;;;;16.80;3.10;;;;;;;8.25;87.72;94634.84;5056898;28;20421;-89
2021/01/30 10:16:58;;;;;;;13.87;3.40;;;;;;;8.27;87.12;94637.69;5058181;28;20419;-88
2021/01/30 10:19:27;;;;;;;17.03;2.70;;;;;;;8.35;87.55;94627.53;5058639;28;20472;-88
2021/01/30 10:21:54;;;;;;;17.30;3.90;;;;;;;8.47;87.42;94633.03;5070995;28;20448;-90
2021/01/30 10:24:25;;;;;;;10.63;2.50;;;;;;;8.38;87.55;94629.09;5067882;28;20405;-87
2021/01/30 10:26:53;;;;;;;18.47;4.20;;;;;;;8.44;88.03;94624.13;5063760;28;20482;-88
2021/01/30 10:29:22;;;;;;;14.70;3.23;;;;;;;8.45;88.24;94624.84;5060470;28;20421;-87
2021/01/30 10:31:53;;;;;;;20.60;3.30;;;;;;;8.47;88.72;94622.97;5061592;28;20836;-86
2021/01/30 10:34:25;;;;;;;15.00;3.27;;;;;;;8.48;88.44;94619.03;5062929;28;20437;-85
2021/01/30 10:36:57;;;;;;;19.80;8.17;;;;;;;8.42;88.95;94610.56;5062395;28;20426;-86
2021/01/30 10:39:24;;;;;;;12.33;3.10;;;;;;;8.42;89.20;94610.56;5061964;28;20405;-85
2021/01/30 10:41:53;;;;;;;12.10;3.30;;;;;;;8.47;90.18;94604.16;5061331;28;20451;-85
2021/01/30 10:44:27;;;;;;;11.87;3.00;;;;;;;8.52;89.18;94600.47;5066631;28;20437;-85
2021/01/30 10:47:00;;;;;;;11.90;2.43;;;;;;;8.54;89.71;94599.91;5067670;28;20397;-85
2021/01/30 10:49:29;;;;;;;12.23;2.73;;;;;;;8.47;89.79;94598.09;5065321;28;20498;-86
2021/01/30 10:52:15;;;;;;;10.03;2.47;;;;;;;8.43;89.73;94597.81;5065757;28;20893;-89
2021/01/30 10:54:43;;;;;;;10.17;3.10;;;;;;;8.36;90.59;94596.69;5067776;28;20389;-90
2021/01/30 10:57:25;;;;;;;7.20;2.40;;;;;;;8.29;90.79;94594.88;5070603;28;20389;-89
2021/01/30 10:59:55;;;;;;;6.80;3.07;;;;;;;8.19;91.72;94599.50;5067828;28;20872;-89
2021/01/30 11:02:39;;;;;;;16.30;3.37;;;;;;;8.19;92.12;94602.19;5067250;28;20546;-89
2021/01/30 11:05:23;;;;;;;6.37;2.30;;;;;;;8.31;91.52;94595.00;5081148;28;20489;-94
2021/01/30 11:07:52;;;;;;;9.43;2.47;;;;;;;8.37;91.34;94594.69;5080152;28;20424;-94
2021/01/30 11:10:27;;;;;;;12.27;2.63;;;;;;;8.44;89.77;94586.50;5080395;28;20412;-94
2021/01/30 11:13:06;;;;;;;13.87;3.03;;;;;;;8.41;90.37;94593.00;5074693;28;20450;-91
2021/01/30 11:15:32;;;;;;;9.80;2.20;;;;;;;8.49;89.77;94582.09;5069385;28;20464;-86
2021/01/30 11:18:15;;;;;;;14.20;2.40;;;;;;;8.49;90.86;94582.78;5074633;28;20393;-88
2021/01/30 11:20:43;;;;;;;10.70;2.60;;;;;;;8.46;90.43;94580.53;5078129;28;20500;-87
2021/01/30 11:23:11;;;;;;;16.33;2.40;;;;;;;8.37;91.75;94581.97;5076517;28;20445;-89
2021/01/30 11:25:40;;;;;;;9.90;2.70;;;;;;;8.48;91.08;94578.00;5064806;28;20432;-88
2021/01/30 11:28:07;;;;;;;14.63;2.73;;;;;;;8.49;91.82;94566.66;5066163;28;20469;-88
2021/01/30 11:30:34;;;;;;;7.63;2.33;;;;;;;8.65;91.02;94552.91;5073242;28;20496;-85
2021/01/30 11:33:04;;;;;;;13.57;2.83;;;;;;;8.50;91.72;94562.00;5071130;28;20469;-86
2021/01/30 11:35:35;;;;;;;9.60;3.00;;;;;;;8.44;92.84;94554.25;5065871;28;20442;-86
2021/01/30 11:38:05;;;;;;;16.90;3.50;;;;;;;8.41;92.34;94549.31;5065798;28;20749;-88
2021/01/30 11:40:32;;;;;;;12.13;3.80;;;;;;;8.40;92.80;94539.81;5062933;28;20565;-89
2021/01/30 11:42:58;;;;;;;13.10;3.83;;;;;;;8.47;92.58;94541.66;5062112;28;20441;-87
2021/01/30 11:45:25;;;;;;;12.07;3.00;;;;;;;8.47;92.60;94541.66;5063853;28;20466;-86
2021/01/30 11:47:51;;;;;;;7.97;2.80;;;;;;;8.47;92.74;94531.59;5064195;28;20496;-87
2021/01/30 11:50:18;;;;;;;13.57;3.67;;;;;;;8.46;93.57;94518.72;5062440;28;20446;-87
2021/01/30 11:52:45;;;;;;;21.20;3.33;;;;;;;8.57;93.10;94513.47;5062100;28;20436;-86
2021/01/30 11:55:13;;;;;;;10.10;2.93;;;;;;;8.56;92.26;94512.06;5063698;28;20402;-86
2021/01/30 11:57:40;;;;;;;14.90;3.63;;;;;;;8.56;92.86;94511.34;5064445;28;20935;-87
2021/01/30 12:00:08;;;;;;;10.77;3.20;;;;;;;8.61;91.67;94497.59;5065056;28;20470;-86
2021/01/30 12:02:37;;;;;;;19.00;3.70;;;;;;;8.50;92.08;94500.91;5065371;28;20490;-87
2021/01/30 12:05:05;;;;;;;14.93;3.70;;;;;;;8.42;93.46;94500.38;5063448;28;20413;-88